sensor_id;sensor_type;location;lat;lon;timestamp;P1;durP1;ratioP1;P2;durP2;ratioP2
12038;SDS011;6080;48.818;9.526;2023-04-03T03:01:05;7.30;;;6.90;;
12038;SDS011;6080;48.818;9.526;2023-04-03T03:03:31;7.70;;;7.20;;
12038;SDS011;6080;48.818;9.526;2023-04-03T03:06:17;8.03;;;7.47;;
12038;SDS011;6080;48.818;9.526;2023-04-03T03:08:43;7.80;;;7.40;;
12038;SDS011;6080;48.818;9.526;2023-04-03T03:11:10;8.23;;;7.80;;
12038;SDS011;6080;48.818;9.526;2023-04-03T03:13:36;8.27;;;7.77;;
12038;SDS011;6080;48.818;9.526;2023-04-03T03:16:02;6.63;;;6.33;;
12038;SDS011;6080;48.818;9.526;2023-04-03T03:18:28;8.60;;;8.00;;
12038;SDS011;6080;48.818;9.526;2023-04-03T03:20:55;6.67;;;6.27;;
12038;SDS011;6080;48.818;9.526;2023-04-03T03:23:23;7.50;;;7.00;;
12038;SDS011;6080;48.818;9.526;2023-04-03T03:25:54;8.17;;;7.57;;
12038;SDS011;6080;48.818;9.526;2023-04-03T03:28:23;8.90;;;8.20;;
12038;SDS011;6080;48.818;9.526;2023-04-03T03:30:50;9.53;;;7.60;;
12038;SDS011;6080;48.818;9.526;2023-04-03T03:33:16;7.30;;;6.80;;
12038;SDS011;6080;48.818;9.526;2023-04-03T03:35:42;6.83;;;6.47;;
12038;SDS011;6080;48.818;9.526;2023-04-03T03:38:08;7.90;;;7.30;;
12038;SDS011;6080;48.818;9.526;2023-04-03T03:40:34;7.77;;;7.37;;
12038;SDS011;6080;48.818;9.526;2023-04-03T03:43:00;7.17;;;6.77;;
12038;SDS011;6080;48.818;9.526;2023-04-03T03:45:26;7.93;;;7.20;;
12038;SDS011;6080;48.818;9.526;2023-04-03T03:47:52;7.20;;;6.80;;
12038;SDS011;6080;48.818;9.526;2023-04-03T03:50:18;7.20;;;6.67;;
12038;SDS011;6080;48.818;9.526;2023-04-03T03:52:44;7.23;;;6.83;;
12038;SDS011;6080;48.818;9.526;2023-04-03T03:55:10;6.57;;;6.17;;
12038;SDS011;6080;48.818;9.526;2023-04-03T03:57:36;7.50;;;6.97;;
12038;SDS011;6080;48.818;9.526;2023-04-03T04:00:02;7.47;;;6.97;;
12038;SDS011;6080;48.818;9.526;2023-04-03T04:02:29;7.47;;;6.80;;
12038;SDS011;6080;48.818;9.526;2023-04-03T04:04:55;7.17;;;6.77;;
12038;SDS011;6080;48.818;9.526;2023-04-03T04:07:21;5.20;;;4.90;;
12038;SDS011;6080;48.818;9.526;2023-04-03T04:09:47;6.47;;;6.07;;
12038;SDS011;6080;48.818;9.526;2023-04-03T04:12:13;6.30;;;5.70;;
12038;SDS011;6080;48.818;9.526;2023-04-03T04:14:39;6.20;;;5.80;;
12038;SDS011;6080;48.818;9.526;2023-04-03T04:17:04;5.90;;;5.57;;
12038;SDS011;6080;48.818;9.526;2023-04-03T04:19:30;6.87;;;6.47;;
12038;SDS011;6080;48.818;9.526;2023-04-03T04:21:56;7.10;;;6.60;;
12038;SDS011;6080;48.818;9.526;2023-04-03T04:24:22;6.07;;;5.60;;
12038;SDS011;6080;48.818;9.526;2023-04-03T04:26:48;6.70;;;6.20;;
12038;SDS011;6080;48.818;9.526;2023-04-03T04:29:13;6.60;;;6.20;;
12038;SDS011;6080;48.818;9.526;2023-04-03T04:31:39;7.43;;;6.97;;
12038;SDS011;6080;48.818;9.526;2023-04-03T04:34:05;5.60;;;5.20;;
12038;SDS011;6080;48.818;9.526;2023-04-03T04:36:31;6.20;;;5.80;;
12038;SDS011;6080;48.818;9.526;2023-04-03T04:38:56;6.40;;;6.00;;
12038;SDS011;6080;48.818;9.526;2023-04-03T04:41:23;6.53;;;5.93;;
12038;SDS011;6080;48.818;9.526;2023-04-03T04:43:50;6.50;;;6.20;;
12038;SDS011;6080;48.818;9.526;2023-04-03T04:46:16;6.50;;;6.20;;
12038;SDS011;6080;48.818;9.526;2023-04-03T04:48:43;6.73;;;6.10;;
12038;SDS011;6080;48.818;9.526;2023-04-03T04:51:10;6.70;;;6.37;;
12038;SDS011;6080;48.818;9.526;2023-04-03T04:53:36;6.73;;;6.23;;
12038;SDS011;6080;48.818;9.526;2023-04-03T04:56:02;6.47;;;6.13;;
12038;SDS011;6080;48.818;9.526;2023-04-03T04:58:29;6.60;;;6.10;;
12038;SDS011;6080;48.818;9.526;2023-04-03T05:01:13;7.07;;;6.57;;
12038;SDS011;6080;48.818;9.526;2023-04-03T05:03:38;6.40;;;5.97;;
12038;SDS011;6080;48.818;9.526;2023-04-03T05:06:04;7.03;;;6.43;;
12038;SDS011;6080;48.818;9.526;2023-04-03T05:08:30;6.80;;;6.50;;
12038;SDS011;6080;48.818;9.526;2023-04-03T05:10:56;7.37;;;6.77;;
12038;SDS011;6080;48.818;9.526;2023-04-03T05:13:22;8.03;;;7.57;;
12038;SDS011;6080;48.818;9.526;2023-04-03T05:15:48;8.07;;;7.47;;
12038;SDS011;6080;48.818;9.526;2023-04-03T05:18:14;7.07;;;6.70;;
12038;SDS011;6080;48.818;9.526;2023-04-03T05:20:40;7.70;;;7.20;;
12038;SDS011;6080;48.818;9.526;2023-04-03T05:23:06;7.40;;;7.00;;
12038;SDS011;6080;48.818;9.526;2023-04-03T05:25:32;6.70;;;6.30;;
12038;SDS011;6080;48.818;9.526;2023-04-03T05:27:57;6.77;;;6.37;;
12038;SDS011;6080;48.818;9.526;2023-04-03T05:30:23;5.83;;;5.53;;
12038;SDS011;6080;48.818;9.526;2023-04-03T05:32:49;6.67;;;6.27;;
12038;SDS011;6080;48.818;9.526;2023-04-03T05:35:15;6.97;;;6.57;;
12038;SDS011;6080;48.818;9.526;2023-04-03T05:37:41;7.10;;;6.70;;
12038;SDS011;6080;48.818;9.526;2023-04-03T05:40:07;7.43;;;6.73;;
12038;SDS011;6080;48.818;9.526;2023-04-03T05:42:34;7.00;;;6.50;;
12038;SDS011;6080;48.818;9.526;2023-04-03T05:44:59;7.87;;;7.37;;
12038;SDS011;6080;48.818;9.526;2023-04-03T05:47:25;6.77;;;6.27;;
12038;SDS011;6080;48.818;9.526;2023-04-03T05:49:51;7.73;;;7.13;;
12038;SDS011;6080;48.818;9.526;2023-04-03T05:52:22;7.50;;;7.07;;
12038;SDS011;6080;48.818;9.526;2023-04-03T05:54:51;6.93;;;6.53;;
12038;SDS011;6080;48.818;9.526;2023-04-03T05:57:17;6.63;;;6.33;;
12038;SDS011;6080;48.818;9.526;2023-04-03T05:59:43;7.33;;;6.83;;
12038;SDS011;6080;48.818;9.526;2023-04-03T06:02:14;6.53;;;6.23;;
12038;SDS011;6080;48.818;9.526;2023-04-03T06:04:42;7.97;;;7.27;;
12038;SDS011;6080;48.818;9.526;2023-04-03T06:07:10;7.00;;;6.60;;
12038;SDS011;6080;48.818;9.526;2023-04-03T06:09:38;6.40;;;5.90;;
12038;SDS011;6080;48.818;9.526;2023-04-03T06:12:04;6.47;;;6.07;;
12038;SDS011;6080;48.818;9.526;2023-04-03T06:14:30;5.83;;;5.53;;
12038;SDS011;6080;48.818;9.526;2023-04-03T06:16:55;5.70;;;5.30;;
12038;SDS011;6080;48.818;9.526;2023-04-03T06:19:21;6.00;;;5.60;;
12038;SDS011;6080;48.818;9.526;2023-04-03T06:21:47;6.47;;;6.03;;
12038;SDS011;6080;48.818;9.526;2023-04-03T06:24:14;5.63;;;5.23;;
12038;SDS011;6080;48.818;9.526;2023-04-03T06:26:41;6.53;;;6.13;;
12038;SDS011;6080;48.818;9.526;2023-04-03T06:29:07;6.73;;;6.23;;
12038;SDS011;6080;48.818;9.526;2023-04-03T06:31:33;8.43;;;7.83;;
12038;SDS011;6080;48.818;9.526;2023-04-03T06:34:01;10.60;;;9.60;;
12038;SDS011;6080;48.818;9.526;2023-04-03T06:36:28;9.00;;;8.33;;
12038;SDS011;6080;48.818;9.526;2023-04-03T06:38:54;7.93;;;7.53;;
12038;SDS011;6080;48.818;9.526;2023-04-03T06:41:19;9.73;;;9.07;;
12038;SDS011;6080;48.818;9.526;2023-04-03T06:43:46;7.37;;;6.97;;
12038;SDS011;6080;48.818;9.526;2023-04-03T06:46:16;7.47;;;7.07;;
12038;SDS011;6080;48.818;9.526;2023-04-03T06:48:44;9.43;;;8.50;;
12038;SDS011;6080;48.818;9.526;2023-04-03T06:51:15;8.97;;;8.47;;
12038;SDS011;6080;48.818;9.526;2023-04-03T06:53:43;10.20;;;9.60;;
12038;SDS011;6080;48.818;9.526;2023-04-03T06:56:10;10.03;;;9.33;;
12038;SDS011;6080;48.818;9.526;2023-04-03T06:58:36;9.90;;;9.20;;
12038;SDS011;6080;48.818;9.526;2023-04-03T07:01:03;9.77;;;9.17;;
12038;SDS011;6080;48.818;9.526;2023-04-03T07:03:29;10.37;;;9.67;;
12038;SDS011;6080;48.818;9.526;2023-04-03T07:05:54;8.57;;;7.97;;
12038;SDS011;6080;48.818;9.526;2023-04-03T07:08:21;9.63;;;9.03;;
12038;SDS011;6080;48.818;9.526;2023-04-03T07:10:48;10.63;;;10.03;;
12038;SDS011;6080;48.818;9.526;2023-04-03T07:13:15;11.17;;;10.53;;
12038;SDS011;6080;48.818;9.526;2023-04-03T07:15:41;9.27;;;8.70;;
12038;SDS011;6080;48.818;9.526;2023-04-03T07:18:07;10.03;;;9.50;;
12038;SDS011;6080;48.818;9.526;2023-04-03T07:20:33;10.40;;;9.43;;
12038;SDS011;6080;48.818;9.526;2023-04-03T07:22:59;9.00;;;8.37;;
12038;SDS011;6080;48.818;9.526;2023-04-03T07:25:27;7.93;;;7.53;;
12038;SDS011;6080;48.818;9.526;2023-04-03T07:27:53;8.80;;;8.20;;
12038;SDS011;6080;48.818;9.526;2023-04-03T07:30:20;8.07;;;7.57;;
12038;SDS011;6080;48.818;9.526;2023-04-03T07:32:46;9.57;;;7.03;;
12038;SDS011;6080;48.818;9.526;2023-04-03T07:35:12;7.63;;;7.13;;
12038;SDS011;6080;48.818;9.526;2023-04-03T07:37:38;8.97;;;8.47;;
12038;SDS011;6080;48.818;9.526;2023-04-03T07:40:04;7.57;;;7.17;;
12038;SDS011;6080;48.818;9.526;2023-04-03T07:42:31;6.97;;;6.37;;
12038;SDS011;6080;48.818;9.526;2023-04-03T07:44:57;6.60;;;6.20;;
12038;SDS011;6080;48.818;9.526;2023-04-03T07:47:23;5.87;;;5.47;;
12038;SDS011;6080;48.818;9.526;2023-04-03T07:49:49;6.00;;;5.60;;
12038;SDS011;6080;48.818;9.526;2023-04-03T07:52:15;6.03;;;5.73;;
12038;SDS011;6080;48.818;9.526;2023-04-03T07:54:41;5.80;;;5.60;;
12038;SDS011;6080;48.818;9.526;2023-04-03T07:57:07;5.67;;;5.37;;
12038;SDS011;6080;48.818;9.526;2023-04-03T07:59:33;6.20;;;5.87;;
12038;SDS011;6080;48.818;9.526;2023-04-03T08:01:59;8.00;;;6.20;;
12038;SDS011;6080;48.818;9.526;2023-04-03T08:04:25;5.20;;;4.80;;
12038;SDS011;6080;48.818;9.526;2023-04-03T08:06:51;6.70;;;6.30;;
12038;SDS011;6080;48.818;9.526;2023-04-03T08:09:17;5.40;;;5.10;;
12038;SDS011;6080;48.818;9.526;2023-04-03T08:11:44;5.10;;;4.80;;
12038;SDS011;6080;48.818;9.526;2023-04-03T08:14:11;6.80;;;6.27;;
12038;SDS011;6080;48.818;9.526;2023-04-03T08:16:42;5.93;;;5.43;;
12038;SDS011;6080;48.818;9.526;2023-04-03T08:19:08;5.73;;;5.33;;
12038;SDS011;6080;48.818;9.526;2023-04-03T08:21:36;7.70;;;7.10;;
12038;SDS011;6080;48.818;9.526;2023-04-03T08:24:01;8.07;;;7.67;;
12038;SDS011;6080;48.818;9.526;2023-04-03T08:26:28;6.13;;;5.63;;
12038;SDS011;6080;48.818;9.526;2023-04-03T08:28:54;5.77;;;5.27;;
12038;SDS011;6080;48.818;9.526;2023-04-03T08:31:20;6.23;;;5.73;;
12038;SDS011;6080;48.818;9.526;2023-04-03T08:33:46;4.67;;;4.47;;
12038;SDS011;6080;48.818;9.526;2023-04-03T08:36:19;5.20;;;5.00;;
12038;SDS011;6080;48.818;9.526;2023-04-03T08:38:53;6.33;;;6.03;;
12038;SDS011;6080;48.818;9.526;2023-04-03T08:41:25;5.73;;;5.40;;
12038;SDS011;6080;48.818;9.526;2023-04-03T08:44:15;6.00;;;5.57;;
12038;SDS011;6080;48.818;9.526;2023-04-03T08:49:51;5.33;;;5.10;;
12038;SDS011;6080;48.818;9.526;2023-04-03T08:52:44;6.87;;;6.27;;
12038;SDS011;6080;48.818;9.526;2023-04-03T08:55:30;6.33;;;5.93;;
12038;SDS011;6080;48.818;9.526;2023-04-03T08:58:01;7.50;;;7.03;;
12038;SDS011;6080;48.818;9.526;2023-04-03T09:00:34;7.43;;;6.93;;
12038;SDS011;6080;48.818;9.526;2023-04-03T09:03:15;5.93;;;5.73;;
12038;SDS011;6080;48.818;9.526;2023-04-03T09:17:09;6.93;;;6.43;;
12038;SDS011;6080;48.818;9.526;2023-04-03T09:22:46;5.80;;;5.43;;
12038;SDS011;6080;48.818;9.526;2023-04-03T09:25:17;5.20;;;4.80;;
12038;SDS011;6080;48.818;9.526;2023-04-03T09:28:01;5.70;;;5.30;;
12038;SDS011;6080;48.818;9.526;2023-04-03T09:30:28;5.70;;;5.40;;
12038;SDS011;6080;48.818;9.526;2023-04-03T09:32:55;5.73;;;5.47;;
12038;SDS011;6080;48.818;9.526;2023-04-03T09:40:39;6.37;;;5.80;;
12038;SDS011;6080;48.818;9.526;2023-04-03T09:45:56;6.17;;;5.83;;
12038;SDS011;6080;48.818;9.526;2023-04-03T09:51:37;5.60;;;5.30;;
12038;SDS011;6080;48.818;9.526;2023-04-03T09:56:57;5.10;;;4.90;;
12038;SDS011;6080;48.818;9.526;2023-04-03T09:59:35;6.03;;;5.53;;
12038;SDS011;6080;48.818;9.526;2023-04-03T10:02:54;5.73;;;5.33;;
12038;SDS011;6080;48.818;9.526;2023-04-03T10:05:01;5.93;;;5.43;;
12038;SDS011;6080;48.818;9.526;2023-04-03T10:07:31;7.03;;;6.53;;
12038;SDS011;6080;48.818;9.526;2023-04-03T10:09:57;6.60;;;6.30;;
12038;SDS011;6080;48.818;9.526;2023-04-03T10:12:26;6.73;;;6.33;;
12038;SDS011;6080;48.818;9.526;2023-04-03T10:35:42;5.33;;;5.13;;
12038;SDS011;6080;48.818;9.526;2023-04-03T10:43:56;5.00;;;4.80;;
12038;SDS011;6080;48.818;9.526;2023-04-03T10:46:43;4.63;;;4.43;;
12038;SDS011;6080;48.818;9.526;2023-04-03T10:57:47;4.50;;;4.23;;
12038;SDS011;6080;48.818;9.526;2023-04-03T11:02:59;4.60;;;4.40;;
12038;SDS011;6080;48.818;9.526;2023-04-03T11:05:35;5.70;;;5.40;;
12038;SDS011;6080;48.818;9.526;2023-04-03T11:08:10;4.87;;;4.47;;
12038;SDS011;6080;48.818;9.526;2023-04-03T11:10:44;4.10;;;3.90;;
12038;SDS011;6080;48.818;9.526;2023-04-03T11:13:24;4.43;;;4.23;;
12038;SDS011;6080;48.818;9.526;2023-04-03T11:16:13;4.90;;;4.60;;
12038;SDS011;6080;48.818;9.526;2023-04-03T11:18:58;5.00;;;4.73;;
12038;SDS011;6080;48.818;9.526;2023-04-03T11:21:29;4.07;;;3.97;;
12038;SDS011;6080;48.818;9.526;2023-04-03T11:24:01;5.10;;;4.70;;
12038;SDS011;6080;48.818;9.526;2023-04-03T11:26:35;4.93;;;4.60;;
12038;SDS011;6080;48.818;9.526;2023-04-03T11:29:06;4.50;;;4.30;;
12038;SDS011;6080;48.818;9.526;2023-04-03T11:37:35;4.10;;;3.90;;
12038;SDS011;6080;48.818;9.526;2023-04-03T11:40:28;4.90;;;4.60;;
12038;SDS011;6080;48.818;9.526;2023-04-03T11:43:02;5.00;;;4.60;;
12038;SDS011;6080;48.818;9.526;2023-04-03T11:46:15;4.80;;;4.40;;
12038;SDS011;6080;48.818;9.526;2023-04-03T11:50:59;5.30;;;5.00;;
12038;SDS011;6080;48.818;9.526;2023-04-03T11:53:37;5.60;;;5.20;;
12038;SDS011;6080;48.818;9.526;2023-04-03T12:01:43;5.37;;;4.97;;
12038;SDS011;6080;48.818;9.526;2023-04-03T12:04:14;4.40;;;4.10;;
12038;SDS011;6080;48.818;9.526;2023-04-03T12:09:25;4.63;;;4.43;;
12038;SDS011;6080;48.818;9.526;2023-04-03T12:11:59;5.10;;;4.50;;
12038;SDS011;6080;48.818;9.526;2023-04-03T12:14:27;4.80;;;4.60;;
12038;SDS011;6080;48.818;9.526;2023-04-03T12:16:54;5.33;;;5.00;;
12038;SDS011;6080;48.818;9.526;2023-04-03T12:24:29;3.90;;;3.77;;
12038;SDS011;6080;48.818;9.526;2023-04-03T12:42:56;5.10;;;4.80;;
12038;SDS011;6080;48.818;9.526;2023-04-03T12:45:27;5.20;;;4.80;;
12038;SDS011;6080;48.818;9.526;2023-04-03T12:47:53;4.70;;;4.30;;
12038;SDS011;6080;48.818;9.526;2023-04-03T12:50:25;4.77;;;4.40;;
12038;SDS011;6080;48.818;9.526;2023-04-03T12:55:31;5.07;;;4.77;;
12038;SDS011;6080;48.818;9.526;2023-04-03T12:58:12;4.90;;;4.50;;
12038;SDS011;6080;48.818;9.526;2023-04-03T13:00:46;4.93;;;4.63;;
12038;SDS011;6080;48.818;9.526;2023-04-03T13:03:20;4.80;;;4.60;;
12038;SDS011;6080;48.818;9.526;2023-04-03T13:05:49;5.03;;;4.73;;
12038;SDS011;6080;48.818;9.526;2023-04-03T13:08:15;5.50;;;5.10;;
12038;SDS011;6080;48.818;9.526;2023-04-03T13:10:50;8.00;;;7.70;;
12038;SDS011;6080;48.818;9.526;2023-04-03T13:13:21;9.20;;;8.70;;
12038;SDS011;6080;48.818;9.526;2023-04-03T13:15:48;9.53;;;8.97;;
12038;SDS011;6080;48.818;9.526;2023-04-03T13:18:48;9.40;;;8.20;;
12038;SDS011;6080;48.818;9.526;2023-04-03T13:21:17;5.40;;;5.10;;
12038;SDS011;6080;48.818;9.526;2023-04-03T13:23:48;5.50;;;5.10;;
12038;SDS011;6080;48.818;9.526;2023-04-03T13:26:16;6.07;;;5.47;;
12038;SDS011;6080;48.818;9.526;2023-04-03T13:28:44;4.53;;;4.33;;
12038;SDS011;6080;48.818;9.526;2023-04-03T13:33:43;4.90;;;4.50;;
12038;SDS011;6080;48.818;9.526;2023-04-03T13:36:31;4.93;;;4.53;;
12038;SDS011;6080;48.818;9.526;2023-04-03T13:39:07;4.97;;;4.67;;
12038;SDS011;6080;48.818;9.526;2023-04-03T13:41:49;4.60;;;4.40;;
12038;SDS011;6080;48.818;9.526;2023-04-03T13:52:17;4.37;;;4.17;;
12038;SDS011;6080;48.818;9.526;2023-04-03T13:54:59;4.43;;;4.23;;
12038;SDS011;6080;48.818;9.526;2023-04-03T13:57:27;4.90;;;4.60;;
12038;SDS011;6080;48.818;9.526;2023-04-03T13:59:53;8.37;;;7.93;;
12038;SDS011;6080;48.818;9.526;2023-04-03T14:02:21;8.60;;;8.10;;
12038;SDS011;6080;48.818;9.526;2023-04-03T14:04:58;6.33;;;5.90;;
12038;SDS011;6080;48.818;9.526;2023-04-03T14:07:27;5.27;;;4.93;;
12038;SDS011;6080;48.818;9.526;2023-04-03T14:09:56;6.30;;;5.77;;
12038;SDS011;6080;48.818;9.526;2023-04-03T14:12:32;5.27;;;4.97;;
12038;SDS011;6080;48.818;9.526;2023-04-03T14:15:02;5.57;;;5.27;;
12038;SDS011;6080;48.818;9.526;2023-04-03T14:17:30;5.63;;;5.23;;
12038;SDS011;6080;48.818;9.526;2023-04-03T14:19:56;4.37;;;4.20;;
12038;SDS011;6080;48.818;9.526;2023-04-03T14:22:24;4.50;;;4.30;;
12038;SDS011;6080;48.818;9.526;2023-04-03T14:24:54;5.03;;;4.80;;
12038;SDS011;6080;48.818;9.526;2023-04-03T14:29:48;5.70;;;5.20;;
12038;SDS011;6080;48.818;9.526;2023-04-03T14:32:16;4.97;;;4.67;;
12038;SDS011;6080;48.818;9.526;2023-04-03T14:34:43;5.10;;;4.80;;
12038;SDS011;6080;48.818;9.526;2023-04-03T14:37:13;4.90;;;4.60;;
12038;SDS011;6080;48.818;9.526;2023-04-03T14:39:41;4.73;;;4.53;;
12038;SDS011;6080;48.818;9.526;2023-04-03T14:42:15;4.97;;;4.67;;
12038;SDS011;6080;48.818;9.526;2023-04-03T14:44:44;5.27;;;4.90;;
12038;SDS011;6080;48.818;9.526;2023-04-03T14:47:11;5.20;;;4.80;;
12038;SDS011;6080;48.818;9.526;2023-04-03T14:49:39;5.33;;;4.93;;
12038;SDS011;6080;48.818;9.526;2023-04-03T14:52:05;5.83;;;5.23;;
12038;SDS011;6080;48.818;9.526;2023-04-03T14:54:31;5.33;;;5.00;;
12038;SDS011;6080;48.818;9.526;2023-04-03T14:56:58;5.33;;;5.03;;
12038;SDS011;6080;48.818;9.526;2023-04-03T14:59:25;4.97;;;4.67;;
12038;SDS011;6080;48.818;9.526;2023-04-03T15:01:52;5.43;;;5.03;;
12038;SDS011;6080;48.818;9.526;2023-04-03T15:04:18;6.77;;;6.27;;
12038;SDS011;6080;48.818;9.526;2023-04-03T15:06:46;7.47;;;7.07;;
12038;SDS011;6080;48.818;9.526;2023-04-03T15:09:17;4.87;;;4.57;;
12038;SDS011;6080;48.818;9.526;2023-04-03T15:11:50;4.73;;;4.43;;
12038;SDS011;6080;48.818;9.526;2023-04-03T15:14:16;5.27;;;5.00;;
12038;SDS011;6080;48.818;9.526;2023-04-03T15:16:42;8.47;;;8.07;;
12038;SDS011;6080;48.818;9.526;2023-04-03T15:19:09;8.03;;;7.63;;
12038;SDS011;6080;48.818;9.526;2023-04-03T15:21:36;6.70;;;6.40;;
12038;SDS011;6080;48.818;9.526;2023-04-03T15:24:04;5.73;;;5.53;;
12038;SDS011;6080;48.818;9.526;2023-04-03T15:26:30;5.53;;;5.17;;
12038;SDS011;6080;48.818;9.526;2023-04-03T15:28:56;5.50;;;5.03;;
12038;SDS011;6080;48.818;9.526;2023-04-03T15:31:23;5.00;;;4.60;;
12038;SDS011;6080;48.818;9.526;2023-04-03T15:33:48;7.40;;;6.90;;
12038;SDS011;6080;48.818;9.526;2023-04-03T15:36:15;6.40;;;5.90;;
12038;SDS011;6080;48.818;9.526;2023-04-03T15:38:40;5.67;;;5.37;;
12038;SDS011;6080;48.818;9.526;2023-04-03T15:41:06;6.67;;;6.37;;
12038;SDS011;6080;48.818;9.526;2023-04-03T15:43:32;8.67;;;8.17;;
12038;SDS011;6080;48.818;9.526;2023-04-03T15:45:59;8.97;;;8.57;;
12038;SDS011;6080;48.818;9.526;2023-04-03T15:48:25;8.63;;;8.23;;
12038;SDS011;6080;48.818;9.526;2023-04-03T15:50:52;8.03;;;7.30;;
12038;SDS011;6080;48.818;9.526;2023-04-03T15:53:18;8.10;;;7.60;;
12038;SDS011;6080;48.818;9.526;2023-04-03T15:55:44;6.53;;;6.13;;
12038;SDS011;6080;48.818;9.526;2023-04-03T15:58:10;5.73;;;5.43;;
12038;SDS011;6080;48.818;9.526;2023-04-03T16:00:36;5.27;;;4.87;;
12038;SDS011;6080;48.818;9.526;2023-04-03T16:03:07;5.83;;;5.53;;
12038;SDS011;6080;48.818;9.526;2023-04-03T16:05:35;6.40;;;5.80;;
12038;SDS011;6080;48.818;9.526;2023-04-03T16:08:03;6.80;;;6.20;;
12038;SDS011;6080;48.818;9.526;2023-04-03T16:10:30;5.50;;;5.00;;
12038;SDS011;6080;48.818;9.526;2023-04-03T16:12:56;6.00;;;5.60;;
12038;SDS011;6080;48.818;9.526;2023-04-03T16:15:22;6.20;;;5.87;;
12038;SDS011;6080;48.818;9.526;2023-04-03T16:17:49;7.57;;;7.23;;
12038;SDS011;6080;48.818;9.526;2023-04-03T16:20:15;6.80;;;6.40;;
12038;SDS011;6080;48.818;9.526;2023-04-03T16:22:42;6.00;;;5.70;;
12038;SDS011;6080;48.818;9.526;2023-04-03T16:25:08;5.50;;;5.10;;
12038;SDS011;6080;48.818;9.526;2023-04-03T16:27:35;5.50;;;5.10;;
12038;SDS011;6080;48.818;9.526;2023-04-03T16:30:01;6.30;;;5.80;;
12038;SDS011;6080;48.818;9.526;2023-04-03T16:32:29;5.50;;;5.10;;
12038;SDS011;6080;48.818;9.526;2023-04-03T16:34:56;5.80;;;5.50;;
12038;SDS011;6080;48.818;9.526;2023-04-03T16:37:22;5.67;;;5.37;;
12038;SDS011;6080;48.818;9.526;2023-04-03T16:39:48;5.73;;;5.23;;
12038;SDS011;6080;48.818;9.526;2023-04-03T16:42:14;5.97;;;5.57;;
12038;SDS011;6080;48.818;9.526;2023-04-03T16:44:40;5.23;;;4.90;;
12038;SDS011;6080;48.818;9.526;2023-04-03T16:47:06;5.73;;;5.33;;
12038;SDS011;6080;48.818;9.526;2023-04-03T16:49:33;6.67;;;6.23;;
12038;SDS011;6080;48.818;9.526;2023-04-03T16:52:00;5.77;;;5.27;;
12038;SDS011;6080;48.818;9.526;2023-04-03T16:54:27;6.07;;;5.67;;
12038;SDS011;6080;48.818;9.526;2023-04-03T16:56:53;5.13;;;4.83;;
12038;SDS011;6080;48.818;9.526;2023-04-03T16:59:19;5.57;;;5.03;;
12038;SDS011;6080;48.818;9.526;2023-04-03T17:01:44;6.03;;;5.63;;
12038;SDS011;6080;48.818;9.526;2023-04-03T17:04:10;5.93;;;5.53;;
12038;SDS011;6080;48.818;9.526;2023-04-03T17:06:37;7.00;;;5.50;;
12038;SDS011;6080;48.818;9.526;2023-04-03T17:09:03;5.67;;;5.30;;
12038;SDS011;6080;48.818;9.526;2023-04-03T17:11:29;5.37;;;5.00;;
12038;SDS011;6080;48.818;9.526;2023-04-03T17:13:56;5.53;;;5.03;;
12038;SDS011;6080;48.818;9.526;2023-04-03T17:16:22;5.33;;;5.10;;
12038;SDS011;6080;48.818;9.526;2023-04-03T17:18:49;5.23;;;4.90;;
12038;SDS011;6080;48.818;9.526;2023-04-03T17:21:15;6.87;;;6.30;;
12038;SDS011;6080;48.818;9.526;2023-04-03T17:23:42;5.87;;;5.47;;
12038;SDS011;6080;48.818;9.526;2023-04-03T17:26:12;6.03;;;5.50;;
12038;SDS011;6080;48.818;9.526;2023-04-03T17:28:37;5.77;;;5.43;;
12038;SDS011;6080;48.818;9.526;2023-04-03T17:31:05;6.17;;;5.30;;
12038;SDS011;6080;48.818;9.526;2023-04-03T17:33:31;6.30;;;5.80;;
12038;SDS011;6080;48.818;9.526;2023-04-03T17:35:57;6.67;;;6.00;;
12038;SDS011;6080;48.818;9.526;2023-04-03T17:38:25;5.40;;;5.00;;
12038;SDS011;6080;48.818;9.526;2023-04-03T17:40:54;5.40;;;4.90;;
12038;SDS011;6080;48.818;9.526;2023-04-03T17:43:21;5.77;;;5.23;;
12038;SDS011;6080;48.818;9.526;2023-04-03T17:45:47;5.50;;;5.13;;
12038;SDS011;6080;48.818;9.526;2023-04-03T17:48:13;5.00;;;4.80;;
12038;SDS011;6080;48.818;9.526;2023-04-03T17:50:39;6.03;;;5.07;;
12038;SDS011;6080;48.818;9.526;2023-04-03T17:53:05;5.40;;;5.10;;
12038;SDS011;6080;48.818;9.526;2023-04-03T17:55:30;5.73;;;5.23;;
12038;SDS011;6080;48.818;9.526;2023-04-03T17:57:56;5.97;;;5.53;;
12038;SDS011;6080;48.818;9.526;2023-04-03T18:00:22;5.60;;;5.30;;
12038;SDS011;6080;48.818;9.526;2023-04-03T18:02:51;6.23;;;5.50;;
12038;SDS011;6080;48.818;9.526;2023-04-03T18:05:18;5.13;;;4.90;;
12038;SDS011;6080;48.818;9.526;2023-04-03T18:07:44;6.33;;;5.90;;
12038;SDS011;6080;48.818;9.526;2023-04-03T18:10:11;5.90;;;5.50;;
12038;SDS011;6080;48.818;9.526;2023-04-03T18:12:38;6.23;;;5.77;;
12038;SDS011;6080;48.818;9.526;2023-04-03T18:15:06;6.10;;;5.70;;
12038;SDS011;6080;48.818;9.526;2023-04-03T18:17:33;6.53;;;6.13;;
12038;SDS011;6080;48.818;9.526;2023-04-03T18:19:58;6.80;;;6.20;;
12038;SDS011;6080;48.818;9.526;2023-04-03T18:22:24;7.60;;;6.10;;
12038;SDS011;6080;48.818;9.526;2023-04-03T18:24:51;6.33;;;5.77;;
12038;SDS011;6080;48.818;9.526;2023-04-03T18:27:18;6.20;;;5.90;;
12038;SDS011;6080;48.818;9.526;2023-04-03T18:29:47;5.87;;;5.40;;
12038;SDS011;6080;48.818;9.526;2023-04-03T18:32:17;6.20;;;5.70;;
12038;SDS011;6080;48.818;9.526;2023-04-03T18:34:43;6.00;;;5.57;;
12038;SDS011;6080;48.818;9.526;2023-04-03T18:37:09;6.23;;;5.87;;
12038;SDS011;6080;48.818;9.526;2023-04-03T18:39:35;5.37;;;5.07;;
12038;SDS011;6080;48.818;9.526;2023-04-03T18:42:05;5.43;;;5.23;;
12038;SDS011;6080;48.818;9.526;2023-04-03T18:44:37;6.57;;;5.50;;
12038;SDS011;6080;48.818;9.526;2023-04-03T18:47:05;6.20;;;5.90;;
12038;SDS011;6080;48.818;9.526;2023-04-03T18:49:32;5.50;;;5.03;;
12038;SDS011;6080;48.818;9.526;2023-04-03T18:52:00;6.03;;;5.63;;
12038;SDS011;6080;48.818;9.526;2023-04-03T18:54:26;5.90;;;5.60;;
12038;SDS011;6080;48.818;9.526;2023-04-03T18:56:52;6.47;;;5.97;;
12038;SDS011;6080;48.818;9.526;2023-04-03T18:59:18;5.63;;;5.20;;
12038;SDS011;6080;48.818;9.526;2023-04-03T19:01:43;5.87;;;5.47;;
12038;SDS011;6080;48.818;9.526;2023-04-03T19:04:10;6.07;;;5.50;;
12038;SDS011;6080;48.818;9.526;2023-04-03T19:06:36;5.73;;;5.43;;
12038;SDS011;6080;48.818;9.526;2023-04-03T19:09:03;5.57;;;5.23;;
12038;SDS011;6080;48.818;9.526;2023-04-03T19:11:29;5.30;;;4.87;;
12038;SDS011;6080;48.818;9.526;2023-04-03T19:13:56;5.60;;;5.30;;
12038;SDS011;6080;48.818;9.526;2023-04-03T19:16:22;5.57;;;5.37;;
12038;SDS011;6080;48.818;9.526;2023-04-03T19:18:48;5.13;;;4.87;;
12038;SDS011;6080;48.818;9.526;2023-04-03T19:21:14;6.40;;;6.00;;
12038;SDS011;6080;48.818;9.526;2023-04-03T19:23:40;5.37;;;5.17;;
12038;SDS011;6080;48.818;9.526;2023-04-03T19:26:10;5.70;;;5.30;;
12038;SDS011;6080;48.818;9.526;2023-04-03T19:28:37;5.60;;;5.20;;
12038;SDS011;6080;48.818;9.526;2023-04-03T19:31:11;5.03;;;4.83;;
12038;SDS011;6080;48.818;9.526;2023-04-03T19:33:39;5.60;;;5.30;;
12038;SDS011;6080;48.818;9.526;2023-04-03T19:36:08;7.27;;;5.77;;
12038;SDS011;6080;48.818;9.526;2023-04-03T19:38:35;6.10;;;5.53;;
12038;SDS011;6080;48.818;9.526;2023-04-03T19:41:05;5.67;;;5.37;;
12038;SDS011;6080;48.818;9.526;2023-04-03T19:43:34;7.30;;;4.87;;
12038;SDS011;6080;48.818;9.526;2023-04-03T19:46:00;4.97;;;4.77;;
12038;SDS011;6080;48.818;9.526;2023-04-03T19:48:26;5.27;;;5.07;;
12038;SDS011;6080;48.818;9.526;2023-04-03T19:50:52;5.90;;;5.10;;
12038;SDS011;6080;48.818;9.526;2023-04-03T19:53:18;6.00;;;5.40;;
12038;SDS011;6080;48.818;9.526;2023-04-03T19:55:46;6.77;;;6.13;;
12038;SDS011;6080;48.818;9.526;2023-04-03T19:58:13;6.83;;;6.23;;
12038;SDS011;6080;48.818;9.526;2023-04-03T20:00:39;6.10;;;5.77;;
12038;SDS011;6080;48.818;9.526;2023-04-03T20:03:04;6.60;;;6.10;;
12038;SDS011;6080;48.818;9.526;2023-04-03T20:05:30;5.73;;;5.50;;
12038;SDS011;6080;48.818;9.526;2023-04-03T20:07:57;5.43;;;5.13;;
12038;SDS011;6080;48.818;9.526;2023-04-03T20:10:22;5.97;;;5.57;;